Time;durP1;ratioP1;P1;durP2;ratioP2;P2;SDS_P1;SDS_P2;PMS_P1;PMS_P2;Temp;Humidity;BMP_temperature;BMP_pressure;BME280_temperature;BME280_humidity;BME280_pressure;Samples;Min_cycle;Max_cycle;Signal;HPM_P1;HPM_P2
2021/12/12 00:01:08;;;;;;;;;;;5.60;96.60;;;;;;4974636;28;19976;-74
2021/12/12 00:03:39;;;;;;;;;;;5.60;96.60;;;;;;4974894;28;19936;-74
2021/12/12 00:06:08;;;;;;;;;;;5.60;96.70;;;;;;4974836;28;19917;-75
2021/12/12 00:08:34;;;;;;;;;;;5.60;96.60;;;;;;4990423;28;19991;-74
2021/12/12 00:11:02;;;;;;;;;;;5.60;96.80;;;;;;4974690;28;19917;-74
2021/12/12 00:13:30;;;;;;;;;;;5.60;96.80;;;;;;4974759;28;19921;-73
2021/12/12 00:15:56;;;;;;;;;;;5.60;96.80;;;;;;4974832;28;19910;-74
2021/12/12 00:18:22;;;;;;;;;;;5.70;96.80;;;;;;4974858;28;20333;-74
2021/12/12 00:20:48;;;;;;;;;;;5.70;96.50;;;;;;4974935;28;19910;-74
2021/12/12 00:23:15;;;;;;;;;;;5.60;96.60;;;;;;4974629;28;19968;-73
2021/12/12 00:25:45;;;;;;;;;;;5.60;96.40;;;;;;4974584;28;20057;-74
2021/12/12 00:28:12;;;;;;;;;;;5.70;96.60;;;;;;4974324;28;19938;-75
2021/12/12 00:30:38;;;;;;;;;;;5.70;96.60;;;;;;4974501;28;19918;-75
2021/12/12 00:33:04;;;;;;;;;;;5.70;96.40;;;;;;4974064;28;19906;-75
2021/12/12 00:35:30;;;;;;;;;;;5.60;96.50;;;;;;4990235;28;20003;-75
2021/12/12 00:37:58;;;;;;;;;;;5.50;96.70;;;;;;4974285;28;19991;-74
2021/12/12 00:40:28;;;;;;;;;;;5.60;96.80;;;;;;4974228;28;19920;-75
2021/12/12 00:42:55;;;;;;;;;;;5.60;96.70;;;;;;4974231;28;20002;-74
2021/12/12 00:45:21;;;;;;;;;;;5.70;96.60;;;;;;4974154;28;19918;-74
2021/12/12 00:47:47;;;;;;;;;;;5.60;96.70;;;;;;4974920;28;19910;-73
2021/12/12 00:50:42;;;;;;;;;;;5.60;96.70;;;;;;4989093;28;19914;-74
2021/12/12 00:53:09;;;;;;;;;;;5.60;96.50;;;;;;4981981;28;19910;-75
2021/12/12 00:55:37;;;;;;;;;;;5.60;96.60;;;;;;4974072;28;19978;-75
2021/12/12 00:58:07;;;;;;;;;;;5.60;96.60;;;;;;4989111;28;20005;-75
2021/12/12 01:00:38;;;;;;;;;;;5.60;96.50;;;;;;4974073;28;20296;-75
2021/12/12 01:03:07;;;;;;;;;;;5.60;96.50;;;;;;4973649;28;19917;-75
2021/12/12 01:05:32;;;;;;;;;;;5.50;96.50;;;;;;4973397;28;20359;-75
2021/12/12 01:07:58;;;;;;;;;;;5.50;96.60;;;;;;4973625;28;19910;-75
2021/12/12 01:10:31;;;;;;;;;;;5.50;96.70;;;;;;4973615;28;19918;-74
2021/12/12 01:12:58;;;;;;;;;;;5.50;96.90;;;;;;4973715;28;20278;-74
2021/12/12 01:15:27;;;;;;;;;;;5.40;97.00;;;;;;4973536;28;19910;-75
2021/12/12 01:17:53;;;;;;;;;;;5.50;97.00;;;;;;4973851;28;20303;-74
2021/12/12 01:20:20;;;;;;;;;;;5.50;97.00;;;;;;4988504;28;19914;-75
2021/12/12 01:22:47;;;;;;;;;;;5.50;96.90;;;;;;4973621;28;20332;-74
2021/12/12 01:25:15;;;;;;;;;;;5.50;97.00;;;;;;4973256;28;19992;-75
2021/12/12 01:27:40;;;;;;;;;;;5.50;97.00;;;;;;4973608;28;19910;-74
2021/12/12 01:30:08;;;;;;;;;;;5.50;97.00;;;;;;4973220;28;19914;-75
2021/12/12 01:32:34;;;;;;;;;;;5.50;97.00;;;;;;4989022;28;20248;-74
2021/12/12 01:35:01;;;;;;;;;;;5.50;97.30;;;;;;4973041;28;19921;-75
2021/12/12 01:39:55;;;;;;;;;;;5.50;97.30;;;;;;4973079;28;20300;-74
2021/12/12 01:42:22;;;;;;;;;;;5.50;97.50;;;;;;4973413;28;19921;-75
2021/12/12 01:45:01;;;;;;;;;;;5.50;97.60;;;;;;4973272;28;19957;-75
2021/12/12 01:48:02;;;;;;;;;;;5.50;97.60;;;;;;4972977;28;19937;-75
2021/12/12 01:50:27;;;;;;;;;;;5.50;97.50;;;;;;5009659;28;19917;-74
2021/12/12 01:52:54;;;;;;;;;;;5.50;97.50;;;;;;4980351;28;19917;-75
2021/12/12 01:55:27;;;;;;;;;;;5.50;97.60;;;;;;4972867;28;19925;-75
2021/12/12 01:57:54;;;;;;;;;;;5.50;97.60;;;;;;4971724;28;19937;-74
2021/12/12 02:00:22;;;;;;;;;;;5.60;97.60;;;;;;4972495;28;19933;-74
2021/12/12 02:02:48;;;;;;;;;;;5.60;97.60;;;;;;4988370;28;19988;-76
2021/12/12 02:05:15;;;;;;;;;;;5.60;97.60;;;;;;4972555;28;19914;-74
2021/12/12 02:07:43;;;;;;;;;;;5.60;97.60;;;;;;4972889;28;20384;-75
2021/12/12 02:10:16;;;;;;;;;;;5.60;97.80;;;;;;4987619;28;20331;-75
2021/12/12 02:12:42;;;;;;;;;;;5.60;97.80;;;;;;4972743;28;20303;-73
2021/12/12 02:15:08;;;;;;;;;;;5.60;97.80;;;;;;4972014;28;19906;-76
2021/12/12 02:17:40;;;;;;;;;;;5.60;97.80;;;;;;4973083;28;19952;-75
2021/12/12 02:20:21;;;;;;;;;;;5.60;97.80;;;;;;4972510;28;19910;-75
2021/12/12 02:35:57;;;;;;;;;;;5.60;97.80;;;;;;4991076;28;19912;-75
2021/12/12 02:38:26;;;;;;;;;;;5.60;97.90;;;;;;5011270;28;19909;-75
2021/12/12 02:40:56;;;;;;;;;;;5.60;97.90;;;;;;5011218;28;19914;-75
2021/12/12 02:43:24;;;;;;;;;;;5.60;97.80;;;;;;5010245;28;19909;-75
2021/12/12 02:45:53;;;;;;;;;;;5.60;97.70;;;;;;5011280;28;19939;-75
2021/12/12 02:48:20;;;;;;;;;;;5.60;97.60;;;;;;5010917;28;19944;-74
2021/12/12 02:50:49;;;;;;;;;;;5.60;97.60;;;;;;5011520;28;19901;-75
2021/12/12 02:53:22;;;;;;;;;;;5.60;97.60;;;;;;5010805;28;19920;-74
2021/12/12 02:55:51;;;;;;;;;;;5.70;97.60;;;;;;5009617;28;20303;-74
2021/12/12 02:58:20;;;;;;;;;;;5.70;97.60;;;;;;5009710;28;20279;-73
2021/12/12 03:00:48;;;;;;;;;;;5.70;97.50;;;;;;5011043;28;19929;-74
2021/12/12 03:03:14;;;;;;;;;;;5.60;97.50;;;;;;5010730;28;20284;-74
2021/12/12 03:05:42;;;;;;;;;;;5.60;97.50;;;;;;5011190;28;19963;-74
2021/12/12 03:08:08;;;;;;;;;;;5.70;97.40;;;;;;5010505;28;20279;-74
2021/12/12 03:10:36;;;;;;;;;;;5.70;97.50;;;;;;5010778;28;19961;-75
2021/12/12 03:13:02;;;;;;;;;;;5.70;97.40;;;;;;5010957;28;19909;-75
2021/12/12 03:15:29;;;;;;;;;;;5.70;97.30;;;;;;5010752;28;20331;-75
2021/12/12 03:17:57;;;;;;;;;;;5.70;97.20;;;;;;5011014;28;20335;-75
2021/12/12 03:20:25;;;;;;;;;;;5.80;97.20;;;;;;5010583;28;19937;-74
2021/12/12 03:22:53;;;;;;;;;;;5.70;97.20;;;;;;5010561;28;19996;-74
2021/12/12 03:25:20;;;;;;;;;;;5.70;97.10;;;;;;5010485;28;20407;-74
2021/12/12 03:27:45;;;;;;;;;;;5.70;97.10;;;;;;5012456;28;20435;-74
2021/12/12 03:30:11;;;;;;;;;;;5.70;97.10;;;;;;5014831;28;19909;-75
2021/12/12 03:32:36;;;;;;;;;;;5.80;97.10;;;;;;5015015;28;19905;-75
2021/12/12 03:35:04;;;;;;;;;;;5.80;97.00;;;;;;5014470;28;19920;-74
2021/12/12 03:37:30;;;;;;;;;;;5.80;97.00;;;;;;5014321;28;20004;-74
2021/12/12 03:39:57;;;;;;;;;;;5.80;96.90;;;;;;5014400;28;19920;-75
2021/12/12 03:42:24;;;;;;;;;;;5.70;97.20;;;;;;5014413;28;19922;-74
2021/12/12 03:44:51;;;;;;;;;;;5.70;96.90;;;;;;5014804;28;19905;-74
2021/12/12 03:47:26;;;;;;;;;;;5.70;96.80;;;;;;5014318;28;19909;-75
2021/12/12 03:49:52;;;;;;;;;;;5.60;96.90;;;;;;5014268;28;19971;-73
2021/12/12 03:52:19;;;;;;;;;;;5.60;96.90;;;;;;5014157;28;19916;-74
2021/12/12 03:54:45;;;;;;;;;;;5.60;97.10;;;;;;5014144;28;19917;-74
2021/12/12 03:57:10;;;;;;;;;;;5.70;96.90;;;;;;5014309;28;20442;-74
2021/12/12 03:59:36;;;;;;;;;;;5.60;96.90;;;;;;5014737;28;20000;-75
2021/12/12 04:02:03;;;;;;;;;;;5.60;96.90;;;;;;5013028;28;19947;-73
2021/12/12 04:04:33;;;;;;;;;;;5.60;96.90;;;;;;5013978;28;20319;-74
2021/12/12 04:06:59;;;;;;;;;;;5.60;96.80;;;;;;5014189;28;19984;-74
2021/12/12 04:09:25;;;;;;;;;;;5.60;96.70;;;;;;5013774;28;19920;-74
2021/12/12 04:11:56;;;;;;;;;;;5.50;97.00;;;;;;5014301;28;19916;-74
2021/12/12 04:14:22;;;;;;;;;;;5.50;96.70;;;;;;5013821;28;19953;-74
2021/12/12 04:16:50;;;;;;;;;;;5.60;96.70;;;;;;5012407;28;19977;-74
2021/12/12 04:19:15;;;;;;;;;;;5.60;96.60;;;;;;5013903;28;19919;-75
2021/12/12 04:21:41;;;;;;;;;;;5.60;96.50;;;;;;5012975;28;20214;-75
2021/12/12 04:24:07;;;;;;;;;;;5.70;96.50;;;;;;5013761;28;19919;-75
2021/12/12 04:26:34;;;;;;;;;;;5.60;96.50;;;;;;5013983;28;20320;-75
2021/12/12 04:29:17;;;;;;;;;;;5.70;96.40;;;;;;5013557;28;20237;-75
2021/12/12 04:31:44;;;;;;;;;;;5.70;96.40;;;;;;5013573;28;19909;-73
2021/12/12 04:34:10;;;;;;;;;;;5.70;96.30;;;;;;5013673;28;20247;-74
2021/12/12 04:36:37;;;;;;;;;;;5.70;96.20;;;;;;5013369;28;19909;-75
2021/12/12 04:39:06;;;;;;;;;;;5.70;96.20;;;;;;5012241;28;19906;-75
2021/12/12 04:41:32;;;;;;;;;;;5.70;96.00;;;;;;5013628;28;19905;-74
2021/12/12 04:43:57;;;;;;;;;;;5.80;95.90;;;;;;5013325;28;20351;-74
2021/12/12 04:46:26;;;;;;;;;;;5.70;95.90;;;;;;5013092;28;19958;-74
2021/12/12 04:51:46;;;;;;;;;;;5.70;95.70;;;;;;5013389;28;20383;-75
2021/12/12 04:54:15;;;;;;;;;;;5.70;95.70;;;;;;5013215;28;19906;-75
2021/12/12 04:56:53;;;;;;;;;;;5.70;95.80;;;;;;5013470;28;19897;-74
2021/12/12 04:59:24;;;;;;;;;;;5.70;96.00;;;;;;5012866;28;19920;-74
2021/12/12 05:01:56;;;;;;;;;;;5.80;95.70;;;;;;5012471;28;19933;-74
2021/12/12 05:04:24;;;;;;;;;;;5.70;95.70;;;;;;5012611;28;20000;-75
2021/12/12 05:06:55;;;;;;;;;;;5.70;95.70;;;;;;5012112;28;20299;-74
2021/12/12 05:09:25;;;;;;;;;;;5.70;95.70;;;;;;5012783;28;19925;-74
2021/12/12 05:12:07;;;;;;;;;;;5.70;95.70;;;;;;5013036;28;19996;-75
2021/12/12 05:14:37;;;;;;;;;;;5.70;95.60;;;;;;5012077;28;20449;-75
2021/12/12 05:17:03;;;;;;;;;;;5.70;95.60;;;;;;5012838;28;20352;-73
2021/12/12 05:19:30;;;;;;;;;;;5.70;95.70;;;;;;5012570;28;20200;-74
2021/12/12 05:21:58;;;;;;;;;;;5.70;95.60;;;;;;5012514;28;20352;-75
2021/12/12 05:24:25;;;;;;;;;;;5.80;95.60;;;;;;5012434;28;19913;-74
2021/12/12 05:26:56;;;;;;;;;;;5.80;95.50;;;;;;5011978;28;19905;-74
2021/12/12 05:29:33;;;;;;;;;;;5.80;95.50;;;;;;5012649;28;19971;-74
2021/12/12 05:32:01;;;;;;;;;;;5.70;95.50;;;;;;5012683;28;19913;-74
2021/12/12 05:34:30;;;;;;;;;;;5.80;95.60;;;;;;5011352;28;20354;-74
2021/12/12 05:36:57;;;;;;;;;;;5.80;95.60;;;;;;5012189;28;19909;-74
2021/12/12 05:39:23;;;;;;;;;;;5.80;95.50;;;;;;5012091;28;19913;-74
2021/12/12 05:41:51;;;;;;;;;;;5.80;95.50;;;;;;5012518;28;19940;-74
2021/12/12 05:44:16;;;;;;;;;;;5.80;95.50;;;;;;5012342;28;19909;-74
2021/12/12 05:46:42;;;;;;;;;;;5.90;95.40;;;;;;5011065;28;19920;-75
2021/12/12 05:49:07;;;;;;;;;;;5.90;95.50;;;;;;5010993;28;19913;-73
2021/12/12 05:51:34;;;;;;;;;;;5.90;95.40;;;;;;5011204;28;20331;-74
2021/12/12 05:53:59;;;;;;;;;;;6.00;95.40;;;;;;5011255;28;19952;-75
2021/12/12 05:56:26;;;;;;;;;;;6.10;95.40;;;;;;5011810;28;19999;-74
2021/12/12 05:58:55;;;;;;;;;;;6.00;95.30;;;;;;5011852;28;19921;-75
2021/12/12 06:01:22;;;;;;;;;;;6.00;95.30;;;;;;5011600;28;19932;-74
2021/12/12 06:03:49;;;;;;;;;;;6.00;95.20;;;;;;5011593;28;19917;-75
2021/12/12 06:06:17;;;;;;;;;;;6.10;95.30;;;;;;5011318;28;19909;-75
2021/12/12 06:08:43;;;;;;;;;;;6.10;95.20;;;;;;5011837;28;20000;-74
2021/12/12 06:11:10;;;;;;;;;;;6.20;95.10;;;;;;5011159;28;19924;-74
2021/12/12 06:13:37;;;;;;;;;;;6.20;95.20;;;;;;5011614;28;19909;-74
2021/12/12 06:16:03;;;;;;;;;;;6.30;95.20;;;;;;5011528;28;19909;-74
2021/12/12 06:18:30;;;;;;;;;;;6.30;95.10;;;;;;5011463;28;19914;-74
2021/12/12 06:20:56;;;;;;;;;;;6.30;95.00;;;;;;5011731;28;19905;-74
2021/12/12 06:23:23;;;;;;;;;;;6.30;94.90;;;;;;5011441;28;20340;-74
2021/12/12 06:25:50;;;;;;;;;;;6.30;94.80;;;;;;5011372;28;19909;-74
2021/12/12 06:28:24;;;;;;;;;;;6.30;94.80;;;;;;5010308;28;19963;-74
2021/12/12 06:30:49;;;;;;;;;;;6.30;94.80;;;;;;5011275;28;19921;-75
2021/12/12 06:33:15;;;;;;;;;;;6.30;94.80;;;;;;5011329;28;19916;-74
2021/12/12 06:35:41;;;;;;;;;;;6.30;94.70;;;;;;5011666;28;20003;-75
2021/12/12 06:38:08;;;;;;;;;;;6.30;94.80;;;;;;5011055;28;20296;-75
2021/12/12 06:40:33;;;;;;;;;;;6.30;94.90;;;;;;5010012;28;20237;-75
2021/12/12 06:43:00;;;;;;;;;;;6.30;95.00;;;;;;5011201;28;19923;-74
2021/12/12 06:45:26;;;;;;;;;;;6.20;95.20;;;;;;5011079;28;19967;-74
2021/12/12 06:47:52;;;;;;;;;;;6.30;95.60;;;;;;5011279;28;19988;-74
2021/12/12 06:50:18;;;;;;;;;;;6.30;95.40;;;;;;5011035;28;19996;-74
2021/12/12 06:52:45;;;;;;;;;;;6.40;95.60;;;;;;5010707;28;19914;-74
2021/12/12 06:55:12;;;;;;;;;;;6.30;95.60;;;;;;5010770;28;20390;-73
2021/12/12 06:57:38;;;;;;;;;;;6.30;95.80;;;;;;5010771;28;19921;-74
2021/12/12 07:00:05;;;;;;;;;;;6.30;96.00;;;;;;5010854;28;19909;-74
2021/12/12 07:02:31;;;;;;;;;;;6.30;96.10;;;;;;5010538;28;20071;-75
2021/12/12 07:04:56;;;;;;;;;;;6.20;96.20;;;;;;5010605;28;20375;-74
2021/12/12 07:07:24;;;;;;;;;;;6.20;96.40;;;;;;5010921;28;19909;-73
2021/12/12 07:09:51;;;;;;;;;;;6.20;96.60;;;;;;5010742;28;19914;-74
2021/12/12 07:12:22;;;;;;;;;;;6.20;96.80;;;;;;5010802;28;20003;-74
2021/12/12 07:14:48;;;;;;;;;;;6.10;96.90;;;;;;5011133;28;19905;-75
2021/12/12 07:17:17;;;;;;;;;;;6.10;97.20;;;;;;5011215;28;20201;-75
2021/12/12 07:19:43;;;;;;;;;;;6.10;97.30;;;;;;5010713;28;20013;-73
2021/12/12 07:22:09;;;;;;;;;;;6.20;97.30;;;;;;5010550;28;19929;-75
2021/12/12 07:24:35;;;;;;;;;;;6.20;97.40;;;;;;5010880;28;19921;-75
2021/12/12 07:27:01;;;;;;;;;;;6.10;97.40;;;;;;5011210;28;19905;-75
2021/12/12 07:29:28;;;;;;;;;;;6.10;97.30;;;;;;5010924;28;19968;-75
2021/12/12 07:31:53;;;;;;;;;;;6.10;97.40;;;;;;5010522;28;19920;-74
2021/12/12 07:34:19;;;;;;;;;;;6.00;97.30;;;;;;5010396;28;19913;-75
2021/12/12 07:37:05;;;;;;;;;;;6.00;97.50;;;;;;5010717;28;19913;-75
2021/12/12 07:39:31;;;;;;;;;;;6.10;97.70;;;;;;5010611;28;19910;-75
2021/12/12 07:41:59;;;;;;;;;;;6.00;97.60;;;;;;5011003;28;20019;-75
2021/12/12 07:44:26;;;;;;;;;;;6.00;97.80;;;;;;5010827;28;20401;-75
2021/12/12 07:46:52;;;;;;;;;;;6.00;97.70;;;;;;5009574;28;20353;-76
2021/12/12 07:49:19;;;;;;;;;;;6.10;97.50;;;;;;5010609;28;19917;-76
2021/12/12 07:51:45;;;;;;;;;;;6.10;97.40;;;;;;5010548;28;19920;-75
2021/12/12 07:54:10;;;;;;;;;;;6.10;97.30;;;;;;5010596;28;19913;-77
2021/12/12 07:56:38;;;;;;;;;;;6.10;97.20;;;;;;5010025;28;19902;-76
2021/12/12 07:59:04;;;;;;;;;;;6.10;97.30;;;;;;5010387;28;19924;-75
2021/12/12 08:01:30;;;;;;;;;;;6.00;97.20;;;;;;5010403;28;19921;-75
2021/12/12 08:03:56;;;;;;;;;;;5.90;97.30;;;;;;5010402;28;20252;-76
2021/12/12 08:06:22;;;;;;;;;;;5.90;97.30;;;;;;5010615;28;19944;-77
2021/12/12 08:08:50;;;;;;;;;;;5.90;97.10;;;;;;5010663;28;19968;-76
2021/12/12 08:11:18;;;;;;;;;;;5.90;97.30;;;;;;5010378;28;19992;-79
2021/12/12 08:13:43;;;;;;;;;;;5.90;97.40;;;;;;5011833;28;20345;-78
2021/12/12 08:16:13;;;;;;;;;;;5.80;97.50;;;;;;5014064;28;19996;-77
2021/12/12 08:18:39;;;;;;;;;;;5.80;97.40;;;;;;5015063;28;19913;-79
2021/12/12 08:21:06;;;;;;;;;;;5.90;97.50;;;;;;5013966;28;20500;-77
2021/12/12 08:23:32;;;;;;;;;;;5.90;97.50;;;;;;5014680;28;19967;-78
2021/12/12 08:25:58;;;;;;;;;;;5.90;97.50;;;;;;5013641;28;19913;-79
2021/12/12 08:28:24;;;;;;;;;;;5.90;97.40;;;;;;5004972;28;19924;-76
2021/12/12 08:30:51;;;;;;;;;;;5.90;97.40;;;;;;4994278;28;19917;-78
2021/12/12 08:33:16;;;;;;;;;;;5.90;97.40;;;;;;4994425;28;19925;-77
2021/12/12 08:35:43;;;;;;;;;;;5.80;97.50;;;;;;4994954;28;19905;-76
2021/12/12 08:38:12;;;;;;;;;;;5.80;97.50;;;;;;4994034;28;19999;-80
2021/12/12 08:40:42;;;;;;;;;;;5.80;97.40;;;;;;4994415;28;20292;-77
2021/12/12 08:43:10;;;;;;;;;;;5.80;97.50;;;;;;4993846;28;19913;-78
2021/12/12 08:45:39;;;;;;;;;;;5.80;97.50;;;;;;4993366;28;19932;-78
2021/12/12 08:48:05;;;;;;;;;;;5.70;97.50;;;;;;4993841;28;20292;-80
2021/12/12 08:50:33;;;;;;;;;;;5.80;97.60;;;;;;4993304;28;19914;-79
2021/12/12 08:52:59;;;;;;;;;;;5.70;97.60;;;;;;4993960;28;19993;-77
2021/12/12 08:55:32;;;;;;;;;;;5.80;97.70;;;;;;4993985;28;20009;-77
2021/12/12 08:58:03;;;;;;;;;;;5.80;97.60;;;;;;4992384;28;19913;-79
2021/12/12 09:00:34;;;;;;;;;;;5.80;97.60;;;;;;4994001;28;19968;-76
2021/12/12 09:03:00;;;;;;;;;;;5.80;97.50;;;;;;4993934;28;19918;-79
2021/12/12 09:05:28;;;;;;;;;;;5.80;97.60;;;;;;4993806;28;19936;-78
2021/12/12 09:07:55;;;;;;;;;;;5.80;97.70;;;;;;4993834;28;19933;-78
2021/12/12 09:10:26;;;;;;;;;;;5.80;97.60;;;;;;4993524;28;19918;-76
2021/12/12 09:12:58;;;;;;;;;;;5.80;97.70;;;;;;4988707;28;19949;-77
2021/12/12 09:15:32;;;;;;;;;;;5.90;97.90;;;;;;4993307;28;19914;-77
2021/12/12 09:17:59;;;;;;;;;;;5.90;97.80;;;;;;4992995;28;20410;-78
2021/12/12 09:20:35;;;;;;;;;;;5.90;98.00;;;;;;4993581;28;19976;-78
2021/12/12 09:23:06;;;;;;;;;;;6.00;98.00;;;;;;4993564;28;19987;-81
2021/12/12 09:25:41;;;;;;;;;;;5.90;98.00;;;;;;4992802;28;19979;-82
2021/12/12 09:28:12;;;;;;;;;;;5.90;98.00;;;;;;4993115;28;20312;-86
2021/12/12 09:30:38;;;;;;;;;;;5.90;98.10;;;;;;4993840;28;19918;-83
2021/12/12 09:33:18;;;;;;;;;;;6.00;98.10;;;;;;4993813;28;19972;-87
2021/12/12 09:35:57;;;;;;;;;;;6.00;98.10;;;;;;4994424;28;20178;-83
2021/12/12 09:38:32;;;;;;;;;;;6.00;98.00;;;;;;5007853;28;20299;-80
2021/12/12 09:41:00;;;;;;;;;;;6.10;98.00;;;;;;4992967;28;19914;-83
2021/12/12 09:43:35;;;;;;;;;;;6.20;98.00;;;;;;4992924;28;19982;-80
2021/12/12 09:46:04;;;;;;;;;;;6.10;98.00;;;;;;4989529;28;19913;-75
2021/12/12 09:51:41;;;;;;;;;;;6.20;98.10;;;;;;4992736;28;19925;-75
2021/12/12 09:54:15;;;;;;;;;;;6.20;98.20;;;;;;4978584;28;20005;-75
2021/12/12 09:56:59;;;;;;;;;;;6.30;98.20;;;;;;4973506;28;19909;-74
2021/12/12 09:59:44;;;;;;;;;;;6.30;98.20;;;;;;4973094;28;20332;-81
2021/12/12 10:02:28;;;;;;;;;;;6.40;98.30;;;;;;4972514;28;20287;-73
2021/12/12 10:05:03;;;;;;;;;;;6.30;98.30;;;;;;4973042;28;19982;-76
2021/12/12 10:07:44;;;;;;;;;;;6.40;98.40;;;;;;4972885;28;19914;-75
2021/12/12 10:10:13;;;;;;;;;;;6.40;98.40;;;;;;4972682;28;19925;-74
2021/12/12 10:12:43;;;;;;;;;;;6.50;98.60;;;;;;4988025;28;20326;-75
2021/12/12 10:15:11;;;;;;;;;;;6.70;98.50;;;;;;4972833;28;19907;-75
2021/12/12 10:17:38;;;;;;;;;;;6.60;98.50;;;;;;4972716;28;20403;-74
2021/12/12 10:20:06;;;;;;;;;;;6.60;98.50;;;;;;4987596;28;19961;-74
2021/12/12 10:22:52;;;;;;;;;;;6.70;98.50;;;;;;4972459;28;19966;-75
2021/12/12 10:25:22;;;;;;;;;;;6.70;98.50;;;;;;4972717;28;20345;-74
2021/12/12 10:27:50;;;;;;;;;;;6.70;98.80;;;;;;4972684;28;19921;-78
2021/12/12 10:30:17;;;;;;;;;;;6.80;98.70;;;;;;4986920;28;19964;-76
2021/12/12 10:33:06;;;;;;;;;;;6.80;98.70;;;;;;4973000;28;20217;-76
2021/12/12 10:35:54;;;;;;;;;;;6.80;98.80;;;;;;4989329;28;19910;-76
2021/12/12 10:38:26;;;;;;;;;;;6.90;98.70;;;;;;4976896;28;20383;-77
2021/12/12 10:41:02;;;;;;;;;;;7.00;98.60;;;;;;4972240;28;19921;-79
2021/12/12 10:43:32;;;;;;;;;;;7.00;98.50;;;;;;4972384;28;20462;-78
2021/12/12 10:46:01;;;;;;;;;;;7.00;98.40;;;;;;4972187;28;20313;-76
2021/12/12 10:48:32;;;;;;;;;;;7.00;98.20;;;;;;4972214;28;19925;-76
2021/12/12 10:51:05;;;;;;;;;;;7.00;98.20;;;;;;4972503;28;19910;-75
2021/12/12 10:53:37;;;;;;;;;;;7.00;98.20;;;;;;4987416;28;20303;-74
2021/12/12 10:56:18;;;;;;;;;;;7.10;98.30;;;;;;4971959;28;20040;-74
2021/12/12 10:58:43;;;;;;;;;;;7.10;98.40;;;;;;4972344;28;19997;-75
2021/12/12 11:01:13;;;;;;;;;;;7.10;98.30;;;;;;4971778;28;20406;-76
2021/12/12 11:03:42;;;;;;;;;;;7.20;98.40;;;;;;4971955;28;19914;-76
2021/12/12 11:06:11;;;;;;;;;;;7.20;98.30;;;;;;4971901;28;19906;-75
2021/12/12 11:08:41;;;;;;;;;;;7.20;98.20;;;;;;4972185;28;20001;-77
2021/12/12 11:11:22;;;;;;;;;;;7.20;98.10;;;;;;4971985;28;19910;-76
2021/12/12 11:13:50;;;;;;;;;;;7.20;98.20;;;;;;4986997;28;19994;-76
2021/12/12 11:16:19;;;;;;;;;;;7.20;98.20;;;;;;4986597;28;20016;-75
2021/12/12 11:18:48;;;;;;;;;;;7.20;98.10;;;;;;4971733;28;19914;-73
2021/12/12 11:21:25;;;;;;;;;;;7.20;98.20;;;;;;4972065;28;19910;-80
2021/12/12 11:24:00;;;;;;;;;;;7.20;98.30;;;;;;4972592;28;20001;-75
2021/12/12 11:26:52;;;;;;;;;;;7.10;98.30;;;;;;4972038;28;19910;-77
2021/12/12 11:29:19;;;;;;;;;;;7.20;98.30;;;;;;4973147;28;20029;-84
2021/12/12 11:31:55;;;;;;;;;;;7.10;98.30;;;;;;4987579;28;20028;-73
2021/12/12 11:34:21;;;;;;;;;;;7.10;98.40;;;;;;4971661;28;19932;-73
2021/12/12 11:36:50;;;;;;;;;;;7.20;98.50;;;;;;4971694;28;19937;-72
2021/12/12 11:39:27;;;;;;;;;;;7.30;98.40;;;;;;4971906;28;19905;-74
2021/12/12 11:41:59;;;;;;;;;;;7.30;98.40;;;;;;4972552;28;19982;-77
2021/12/12 11:44:34;;;;;;;;;;;7.30;98.40;;;;;;4986327;28;19914;-77
2021/12/12 11:47:14;;;;;;;;;;;7.30;98.40;;;;;;4972068;28;19914;-73
2021/12/12 11:49:40;;;;;;;;;;;7.30;98.50;;;;;;4974489;28;19925;-75
2021/12/12 11:52:08;;;;;;;;;;;7.30;98.60;;;;;;4990356;28;19921;-75
2021/12/12 11:54:41;;;;;;;;;;;7.30;98.70;;;;;;4990527;28;19938;-74
2021/12/12 11:57:11;;;;;;;;;;;7.30;98.80;;;;;;4975073;28;19917;-73
2021/12/12 11:59:53;;;;;;;;;;;7.40;98.90;;;;;;4975141;28;20259;-72
2021/12/12 12:02:45;;;;;;;;;;;7.40;99.00;;;;;;4974839;28;20145;-71
2021/12/12 12:05:19;;;;;;;;;;;7.40;99.00;;;;;;4974836;28;19938;-73
2021/12/12 12:08:02;;;;;;;;;;;7.40;99.00;;;;;;4973983;28;19914;-72
2021/12/12 12:10:45;;;;;;;;;;;7.50;98.90;;;;;;4974867;28;19925;-73
2021/12/12 12:13:11;;;;;;;;;;;7.50;99.00;;;;;;4974939;28;19969;-72
2021/12/12 12:15:42;;;;;;;;;;;7.50;99.40;;;;;;4974507;28;20365;-74
2021/12/12 12:18:20;;;;;;;;;;;7.60;99.10;;;;;;4974795;28;19924;-73
2021/12/12 12:20:52;;;;;;;;;;;7.60;99.10;;;;;;4975549;28;19921;-74
2021/12/12 12:23:18;;;;;;;;;;;7.60;99.30;;;;;;4974774;28;19910;-75
2021/12/12 12:28:57;;;;;;;;;;;7.50;99.80;;;;;;4974487;28;19965;-79
2021/12/12 12:31:49;;;;;;;;;;;7.80;99.90;;;;;;4974223;28;19910;-74
2021/12/12 12:34:15;;;;;;;;;;;7.80;99.70;;;;;;4976512;28;19914;-76
2021/12/12 12:37:18;;;;;;;;;;;7.80;99.70;;;;;;4989901;28;20017;-76
2021/12/12 12:39:46;;;;;;;;;;;7.70;99.70;;;;;;4974451;28;20237;-77
2021/12/12 12:42:31;;;;;;;;;;;7.70;99.80;;;;;;4974795;28;19993;-76
2021/12/12 12:45:15;;;;;;;;;;;7.70;99.90;;;;;;4975085;28;19957;-76
2021/12/12 12:47:40;;;;;;;;;;;7.60;99.90;;;;;;4974820;28;19910;-75
2021/12/12 12:50:25;;;;;;;;;;;7.70;99.90;;;;;;4974835;28;20295;-76
2021/12/12 12:53:10;;;;;;;;;;;7.70;99.90;;;;;;4974474;28;19965;-75
2021/12/12 12:55:54;;;;;;;;;;;7.70;99.90;;;;;;4974490;28;19921;-73
2021/12/12 12:58:23;;;;;;;;;;;7.80;99.90;;;;;;4973928;28;20004;-74
2021/12/12 13:00:50;;;;;;;;;;;7.70;99.90;;;;;;4972655;28;19957;-74
2021/12/12 13:03:28;;;;;;;;;;;7.80;99.90;;;;;;4974734;28;19910;-77
2021/12/12 13:05:55;;;;;;;;;;;7.90;99.90;;;;;;4989735;28;19902;-78
2021/12/12 13:08:39;;;;;;;;;;;7.90;99.90;;;;;;4974239;28;19972;-76
2021/12/12 13:11:06;;;;;;;;;;;8.00;99.90;;;;;;4974399;28;19986;-78
2021/12/12 13:13:36;;;;;;;;;;;8.00;99.90;;;;;;4988821;28;19921;-77
2021/12/12 13:16:08;;;;;;;;;;;8.00;99.90;;;;;;4974267;28;19913;-78
2021/12/12 13:18:52;;;;;;;;;;;8.00;99.90;;;;;;4974097;28;20022;-77
2021/12/12 13:21:20;;;;;;;;;;;8.00;99.90;;;;;;4974349;28;19906;-76
2021/12/12 13:24:00;;;;;;;;;;;8.00;99.90;;;;;;4974331;28;20317;-76
2021/12/12 13:26:29;;;;;;;;;;;8.00;99.90;;;;;;4989349;28;19953;-75
2021/12/12 13:29:06;;;;;;;;;;;8.00;99.90;;;;;;4973992;28;19984;-81
2021/12/12 13:31:39;;;;;;;;;;;8.00;99.90;;;;;;4989258;28;20259;-80
2021/12/12 13:34:10;;;;;;;;;;;8.00;99.90;;;;;;4973956;28;19914;-79
2021/12/12 13:36:54;;;;;;;;;;;8.00;99.90;;;;;;4973756;28;20001;-81
2021/12/12 13:39:26;;;;;;;;;;;8.00;99.90;;;;;;4975993;28;20307;-77
2021/12/12 13:42:08;;;;;;;;;;;8.00;99.90;;;;;;4974173;28;19906;-77
2021/12/12 13:44:36;;;;;;;;;;;8.00;99.90;;;;;;4973647;28;19910;-77
2021/12/12 13:47:08;;;;;;;;;;;8.00;99.90;;;;;;4973321;28;19914;-78
2021/12/12 13:49:37;;;;;;;;;;;8.00;99.90;;;;;;4973086;28;20006;-75
2021/12/12 13:52:08;;;;;;;;;;;8.10;99.90;;;;;;4973462;28;19964;-80
2021/12/12 13:54:53;;;;;;;;;;;8.10;99.90;;;;;;4973414;28;19914;-77
2021/12/12 13:57:23;;;;;;;;;;;8.10;99.90;;;;;;4973532;28;19914;-82
2021/12/12 13:59:58;;;;;;;;;;;8.20;99.90;;;;;;4973121;28;19936;-81
2021/12/12 14:02:23;;;;;;;;;;;8.10;99.90;;;;;;4988311;28;19933;-80
2021/12/12 14:05:08;;;;;;;;;;;8.20;99.90;;;;;;4971970;28;20213;-85
2021/12/12 14:07:41;;;;;;;;;;;8.20;99.90;;;;;;4987800;28;19956;-77
2021/12/12 14:10:14;;;;;;;;;;;8.20;99.90;;;;;;4973383;28;19921;-77
2021/12/12 14:12:41;;;;;;;;;;;8.20;99.90;;;;;;4972442;28;20000;-79
2021/12/12 14:15:11;;;;;;;;;;;8.20;99.90;;;;;;4973268;28;19949;-83
2021/12/12 14:17:47;;;;;;;;;;;8.20;99.90;;;;;;4973808;28;20283;-82
2021/12/12 14:20:16;;;;;;;;;;;8.20;99.90;;;;;;4973294;28;19933;-87
2021/12/12 14:22:42;;;;;;;;;;;8.20;99.90;;;;;;4972794;28;20001;-81
2021/12/12 14:25:09;;;;;;;;;;;8.20;99.90;;;;;;4973105;28;19953;-83
2021/12/12 14:27:35;;;;;;;;;;;8.20;99.90;;;;;;4972667;28;19922;-79
2021/12/12 14:30:04;;;;;;;;;;;8.10;99.90;;;;;;4972872;28;19910;-80
2021/12/12 14:32:36;;;;;;;;;;;8.20;99.90;;;;;;4988553;28;19945;-87
2021/12/12 14:35:05;;;;;;;;;;;8.10;99.90;;;;;;4973032;28;19917;-79
2021/12/12 14:37:36;;;;;;;;;;;8.10;99.90;;;;;;4999198;28;19921;-82
2021/12/12 14:40:06;;;;;;;;;;;8.10;99.90;;;;;;4992428;28;20332;-79
2021/12/12 14:42:34;;;;;;;;;;;8.10;99.90;;;;;;4993371;28;19913;-84
2021/12/12 14:45:07;;;;;;;;;;;8.10;99.90;;;;;;5008653;28;19940;-77
2021/12/12 14:47:36;;;;;;;;;;;8.10;99.90;;;;;;4994070;28;19974;-78
2021/12/12 14:50:10;;;;;;;;;;;8.10;99.90;;;;;;4993078;28;19914;-76
2021/12/12 14:52:37;;;;;;;;;;;8.20;99.90;;;;;;5000692;28;19936;-77
2021/12/12 14:55:03;;;;;;;;;;;8.20;99.90;;;;;;4992006;28;20255;-76
2021/12/12 14:57:30;;;;;;;;;;;8.10;99.90;;;;;;5008023;28;19913;-76
2021/12/12 15:00:01;;;;;;;;;;;8.10;99.90;;;;;;4992637;28;20343;-75
2021/12/12 15:02:31;;;;;;;;;;;8.10;99.90;;;;;;4991677;28;19993;-75
2021/12/12 15:04:59;;;;;;;;;;;8.10;99.90;;;;;;4992063;28;19969;-76
2021/12/12 15:07:25;;;;;;;;;;;8.10;99.90;;;;;;4992772;28;19913;-76
2021/12/12 15:09:51;;;;;;;;;;;8.10;99.90;;;;;;5007119;28;19944;-76
2021/12/12 15:12:18;;;;;;;;;;;8.20;99.90;;;;;;4993288;28;20391;-75